createdAt,value
2018-04-19T00:10:18.401Z,57.00
2018-04-19T00:15:12.864Z,56.90
2018-04-19T00:20:08.087Z,56.10
2018-04-19T00:25:03.218Z,56.30
2018-04-19T00:29:57.575Z,56.20
2018-04-19T00:34:51.950Z,56.80
2018-04-19T00:39:46.319Z,58.00
2018-04-19T00:44:41.459Z,60.60
2018-04-19T00:49:35.841Z,60.60
2018-04-19T00:54:31.159Z,63.60
2018-04-19T00:59:26.303Z,64.50
2018-04-19T01:04:21.763Z,64.60
2018-04-19T01:09:16.149Z,64.50
2018-04-19T01:14:10.511Z,65.60
2018-04-19T01:19:05.648Z,67.20
2018-04-19T01:24:00.027Z,67.10
2018-04-19T01:28:54.581Z,67.60
2018-04-19T01:33:49.059Z,68.50
2018-04-19T01:38:43.465Z,69.60
2018-04-19T01:43:37.768Z,70.00
2018-04-19T01:48:32.175Z,70.50
2018-04-19T01:53:26.541Z,70.60
2018-04-19T01:58:21.053Z,70.70
2018-04-19T02:03:16.185Z,70.10
2018-04-19T02:08:11.309Z,69.50
2018-04-19T02:13:06.510Z,69.50
2018-04-19T02:18:01.112Z,69.60
2018-04-19T02:22:55.476Z,68.90
2018-04-19T02:27:49.851Z,69.70
2018-04-19T02:32:43.988Z,69.40
2018-04-19T02:37:38.346Z,69.30
2018-04-19T02:42:32.702Z,68.90
2018-04-19T02:47:27.064Z,69.10
2018-04-19T02:52:21.839Z,68.10
2018-04-19T02:57:16.245Z,67.70
2018-04-19T03:02:10.874Z,67.40
2018-04-19T03:07:06.194Z,66.30
2018-04-19T03:12:01.322Z,65.20
2018-04-19T03:16:56.694Z,64.20
2018-04-19T03:21:51.101Z,64.10
2018-04-19T03:26:46.385Z,64.30
2018-04-19T03:31:40.888Z,64.30
2018-04-19T03:36:35.263Z,64.90
2018-04-19T03:41:30.397Z,66.00
2018-04-19T03:46:25.508Z,66.50
2018-04-19T03:51:20.645Z,66.20
2018-04-19T03:56:15.897Z,66.30
2018-04-19T04:01:10.335Z,66.30
2018-04-19T04:06:05.596Z,66.20
2018-04-19T04:10:59.962Z,66.20
2018-04-19T04:15:54.335Z,66.10
2018-04-19T04:21:05.717Z,66.10
2018-04-19T04:26:00.089Z,65.80
2018-04-19T04:30:55.227Z,65.00
2018-04-19T04:35:49.603Z,64.90
2018-04-19T04:40:44.054Z,65.10
2018-04-19T04:45:38.423Z,65.20
2018-04-19T04:50:33.408Z,65.00
2018-04-19T04:55:27.761Z,65.00
2018-04-19T05:00:22.121Z,65.60
2018-04-19T05:05:16.585Z,66.20
2018-04-19T05:10:11.149Z,66.40
2018-04-19T05:15:06.460Z,66.30
2018-04-19T05:20:02.277Z,65.80
2018-04-19T05:24:56.783Z,65.80
2018-04-19T05:29:51.171Z,64.90
2018-04-19T05:34:45.545Z,64.30
2018-04-19T05:39:39.908Z,64.00
2018-04-19T05:44:34.482Z,63.30
2018-04-19T05:49:28.921Z,62.70
2018-04-19T05:54:23.554Z,61.60
2018-04-19T05:59:17.860Z,60.60
2018-04-19T06:04:13.115Z,50.60
2018-04-19T06:09:07.060Z,50.40
2018-04-19T06:14:02.449Z,37.80
2018-04-19T06:18:56.824Z,37.30
2018-04-19T06:23:51.208Z,34.00
2018-04-19T06:28:46.394Z,29.30
2018-04-19T06:33:40.910Z,29.10
2018-04-19T06:38:35.599Z,27.50
2018-04-19T06:43:30.307Z,25.70
2018-04-19T06:48:24.965Z,24.20
2018-04-19T06:53:19.625Z,23.00
2018-04-19T06:58:14.255Z,21.70
2018-04-19T07:03:08.930Z,21.20
2018-04-19T07:08:04.348Z,20.40
2018-04-19T07:12:59.772Z,19.90
2018-04-19T07:17:55.229Z,19.30
2018-04-19T07:22:49.980Z,19.30
2018-04-19T07:27:44.407Z,19.70
2018-04-19T07:32:39.049Z,18.70
2018-04-19T07:37:33.709Z,18.70
2018-04-19T07:42:28.360Z,17.60
2018-04-19T07:47:23.080Z,17.10
2018-04-19T07:52:17.794Z,16.20
2018-04-19T07:57:12.918Z,15.40
2018-04-19T08:02:07.569Z,15.30
2018-04-19T08:07:02.223Z,14.50
2018-04-19T08:11:57.762Z,14.40
2018-04-19T08:16:52.400Z,14.40
2018-04-19T08:21:47.066Z,14.00
2018-04-19T08:26:41.689Z,13.70
2018-04-19T08:31:36.337Z,13.90
2018-04-19T08:36:31.001Z,14.20
2018-04-19T08:41:25.407Z,13.70
2018-04-19T08:46:20.067Z,13.40
2018-04-19T08:51:14.818Z,13.50
2018-04-19T08:56:09.453Z,13.60
2018-04-19T09:01:04.104Z,12.80
2018-04-19T09:05:58.736Z,12.50
2018-04-19T09:10:54.441Z,12.10
2018-04-19T09:15:49.553Z,12.10
2018-04-19T09:20:44.344Z,12.20
2018-04-19T09:25:39.099Z,11.90
2018-04-19T09:30:34.493Z,10.80
2018-04-19T09:35:28.931Z,10.70
2018-04-19T09:40:24.665Z,12.40
2018-04-19T09:45:19.337Z,12.30
2018-04-19T09:50:14.305Z,12.90
2018-04-19T09:55:09.728Z,17.80
2018-04-19T10:00:04.647Z,20.70
2018-04-19T10:05:02.628Z,23.00
2018-04-19T10:09:58.071Z,24.50
2018-04-19T10:14:52.771Z,24.50
2018-04-19T10:19:47.128Z,25.50
2018-04-19T10:24:42.279Z,26.80
2018-04-19T10:29:36.680Z,26.70
2018-04-19T10:34:30.874Z,27.00
2018-04-19T10:39:25.025Z,26.80
2018-04-19T10:44:20.245Z,26.40
2018-04-19T10:49:14.657Z,26.50
2018-04-19T10:54:09.046Z,26.50
2018-04-19T10:59:03.676Z,26.60
2018-04-19T11:03:58.049Z,25.80
2018-04-19T11:08:52.432Z,26.10
2018-04-19T11:13:47.046Z,26.00
2018-04-19T11:18:41.439Z,26.40
2018-04-19T11:23:36.082Z,25.10
2018-04-19T11:28:30.458Z,25.30
2018-04-19T11:33:24.891Z,24.00
2018-04-19T11:38:19.472Z,24.80
2018-04-19T11:43:14.483Z,25.40
2018-04-19T11:48:08.861Z,25.00
2018-04-19T11:53:03.250Z,24.50
2018-04-19T11:57:58.408Z,24.20
2018-04-19T12:02:52.835Z,24.20
2018-04-19T12:07:47.222Z,23.80
2018-04-19T12:12:41.609Z,23.30
2018-04-19T12:17:35.975Z,23.60
2018-04-19T12:22:31.134Z,23.30
2018-04-19T12:27:25.509Z,23.30
2018-04-19T12:32:20.433Z,22.40
2018-04-19T12:37:15.761Z,23.10
2018-04-19T12:42:11.137Z,21.60
2018-04-19T12:47:05.524Z,21.60
2018-04-19T12:51:59.917Z,23.00
2018-04-19T12:56:54.326Z,21.90
2018-04-19T13:01:48.702Z,21.60
2018-04-19T13:06:43.276Z,23.30
2018-04-19T13:11:37.651Z,21.90
2018-04-19T13:16:32.962Z,22.30
2018-04-19T13:21:27.488Z,22.20
2018-04-19T13:26:21.894Z,22.60
2018-04-19T13:31:16.398Z,22.60
2018-04-19T13:36:10.985Z,22.70
2018-04-19T13:41:05.361Z,22.80
2018-04-19T13:45:59.484Z,22.20
2018-04-19T13:50:53.868Z,22.70
2018-04-19T13:55:48.257Z,22.20
2018-04-19T14:00:42.673Z,22.50
2018-04-19T14:05:36.987Z,22.90
2018-04-19T14:10:31.386Z,22.60
2018-04-19T14:15:25.775Z,22.40
2018-04-19T14:20:20.178Z,22.70
2018-04-19T14:25:14.610Z,22.30
2018-04-19T14:30:09.468Z,22.80
2018-04-19T14:35:05.698Z,22.70
2018-04-19T14:40:00.315Z,22.70
2018-04-19T14:44:54.686Z,22.80
2018-04-19T14:49:49.084Z,22.00
2018-04-19T14:54:43.722Z,22.10
2018-04-19T14:59:38.211Z,22.30
2018-04-19T15:04:32.682Z,22.40
2018-04-19T15:09:26.811Z,22.30
2018-04-19T15:14:21.345Z,21.20
2018-04-19T15:19:15.747Z,21.30
2018-04-19T15:24:10.111Z,21.00
2018-04-19T15:29:04.262Z,21.00
2018-04-19T15:33:59.181Z,21.90
2018-04-19T15:38:54.305Z,22.20
2018-04-19T15:43:49.654Z,21.80
2018-04-19T15:48:44.216Z,21.80
2018-04-19T15:53:40.021Z,22.20
2018-04-19T15:58:35.323Z,22.20
2018-04-19T16:03:30.917Z,22.20
2018-04-19T16:08:26.246Z,22.40
2018-04-19T16:13:20.567Z,22.40
2018-04-19T16:18:15.374Z,22.30
2018-04-19T16:23:10.492Z,22.40
2018-04-19T16:28:05.768Z,22.10
2018-04-19T16:33:00.173Z,22.00
2018-04-19T16:37:54.289Z,22.30
2018-04-19T16:42:49.247Z,22.40
2018-04-19T16:47:43.589Z,22.40
2018-04-19T16:52:38.070Z,22.40
2018-04-19T16:57:32.416Z,22.60
2018-04-19T17:02:27.393Z,23.00
2018-04-19T17:07:21.791Z,23.00
2018-04-19T17:12:16.081Z,23.30
2018-04-19T17:17:10.223Z,23.50
2018-04-19T17:22:05.050Z,23.90
2018-04-19T17:26:59.443Z,23.90
2018-04-19T17:31:54.153Z,24.60
2018-04-19T17:42:10.982Z,25.00
2018-04-19T17:47:05.358Z,25.00
2018-04-19T17:52:01.503Z,25.20
2018-04-19T17:56:56.109Z,26.10
2018-04-19T18:01:50.638Z,26.10
2018-04-19T18:06:45.328Z,26.30
2018-04-19T18:11:39.475Z,26.40
2018-04-19T18:16:33.873Z,26.90
2018-04-19T18:21:28.295Z,27.00
2018-04-19T18:26:22.673Z,27.60
2018-04-19T18:31:17.028Z,27.60
2018-04-19T18:36:12.203Z,28.50
2018-04-19T18:41:06.533Z,28.40
2018-04-19T18:46:00.880Z,28.70
2018-04-19T18:50:55.433Z,28.80
2018-04-19T18:55:49.806Z,29.40
2018-04-19T19:00:44.370Z,30.50
2018-04-19T19:05:38.772Z,32.40
2018-04-19T19:10:33.726Z,32.90
2018-04-19T19:31:32.671Z,34.00
2018-04-19T19:36:28.140Z,34.60
2018-04-19T19:41:22.736Z,34.50
2018-04-19T19:46:17.094Z,34.80
2018-04-19T19:51:12.231Z,36.00
2018-04-19T19:56:07.144Z,36.50
2018-04-19T20:01:02.559Z,37.10
2018-04-19T20:05:56.949Z,37.00
2018-04-19T20:10:51.416Z,37.70
2018-04-19T20:15:45.773Z,38.40
2018-04-19T20:20:40.899Z,38.40
2018-04-19T20:25:36.058Z,38.80
2018-04-19T20:30:30.401Z,38.80
2018-04-19T20:35:24.790Z,39.00
2018-04-19T20:40:19.252Z,39.00
2018-04-19T20:45:13.640Z,39.30
2018-04-19T20:50:08.203Z,39.50
2018-04-19T20:55:02.607Z,39.90
2018-04-19T20:59:57.288Z,40.50
2018-04-19T21:04:51.813Z,41.70
2018-04-19T21:09:46.031Z,42.40
2018-04-19T21:14:41.242Z,42.00
2018-04-19T21:19:35.377Z,42.00
2018-04-19T21:24:30.514Z,41.20
2018-04-19T21:29:25.716Z,41.10
2018-04-19T21:34:21.129Z,41.10
2018-04-19T21:39:15.556Z,41.00
2018-04-19T21:44:10.731Z,41.30
2018-04-19T21:49:04.914Z,41.30
2018-04-19T21:53:59.313Z,41.20
2018-04-19T21:58:53.725Z,40.90
2018-04-19T22:03:48.204Z,41.00
2018-04-19T22:08:42.560Z,41.30
2018-04-19T22:13:36.922Z,41.50
2018-04-19T22:18:31.283Z,41.80
2018-04-19T22:23:25.644Z,42.30
2018-04-19T22:28:19.974Z,42.70
2018-04-19T22:33:14.371Z,43.10
2018-04-19T22:38:08.726Z,44.20
2018-04-19T22:43:03.068Z,44.80
2018-04-19T22:47:57.419Z,45.20
2018-04-19T22:52:51.841Z,45.50
2018-04-19T22:57:46.189Z,45.70
2018-04-19T23:02:40.673Z,45.90
2018-04-19T23:07:35.050Z,46.10
2018-04-19T23:12:29.177Z,46.60
2018-04-19T23:17:23.522Z,46.60
2018-04-19T23:22:17.152Z,46.90
2018-04-19T23:27:12.530Z,47.20
2018-04-19T23:32:07.663Z,47.20
2018-04-19T23:37:02.796Z,47.40
2018-04-19T23:41:57.413Z,47.30
2018-04-19T23:46:51.945Z,48.40
2018-04-19T23:51:46.450Z,49.20
2018-04-19T23:56:40.849Z,49.90
